KHJO

Hanford Municipal Airport

Hanford, California, USA
METAR KHJO 260353Z AUTO 34004KT 10SM CLR 18/10 A3005 RMK AO2 SLP176 T01780100
Observed Flight Rules
May-26 @ 03:53 UTC (30 minutes ago) Visual Flight Rules
Wind Visibility Clouds
340° at 4 knots 10 miles
  • Clear skies
Temperatures Readings
Current 18°C / 64°F
Dewpoint 10°C / 50°F
Humidity 60%
Altimeter 30.05" Hg
Pressure 1017.6 hPa
Elevation 74
METAR KHJO 260353Z AUTO 34004KT 10SM CLR 18/10 A3005 RMK AO2 SLP176 T01780100
Observed Flight Rules
May-26 @ 03:53 UTC
(30 minutes ago)
VFR
Wind Visibility
340° at 4 knots 10 miles
Clouds
  • Clear skies
Temperature Dewpoint
18°C / 64°F 10°C / 50°F
Humidity Altimeter Pressure
60% 30.05" Hg 1017.6 hPa